createdAt,value
2023-02-09T00:03:41.655Z,102532.84
2023-02-09T00:08:43.292Z,102533.75
2023-02-09T00:13:44.917Z,102527.53
2023-02-09T00:18:46.363Z,102521.50
2023-02-09T00:23:47.781Z,102526.63
2023-02-09T00:28:49.257Z,102515.31
2023-02-09T00:33:50.753Z,102505.63
2023-02-09T00:38:52.231Z,102510.13
2023-02-09T00:43:53.716Z,102513.38
2023-02-09T00:48:56.228Z,102507.22
2023-02-09T00:53:57.664Z,102507.28
2023-02-09T00:58:59.076Z,102493.50
2023-02-09T01:04:00.638Z,102498.59
2023-02-09T01:09:02.428Z,102493.41
2023-02-09T01:14:04.499Z,102492.66
2023-02-09T01:19:05.963Z,102494.19
2023-02-09T01:24:07.550Z,102487.72
2023-02-09T01:29:12.855Z,102489.50
2023-02-09T01:34:16.948Z,102481.50
2023-02-09T01:39:18.402Z,102474.91
2023-02-09T01:44:19.757Z,102469.94
2023-02-09T01:49:27.043Z,102465.50
2023-02-09T01:54:37.374Z,102454.91
2023-02-09T01:59:42.613Z,102473.03
2023-02-09T02:04:44.799Z,102463.41
2023-02-09T02:09:47.743Z,102462.22
2023-02-09T02:14:50.333Z,102460.53
2023-02-09T02:20:32.618Z,102457.34
2023-02-09T02:26:10.191Z,102470.59
2023-02-09T02:31:41.195Z,102468.34
2023-02-09T02:36:57.673Z,102454.38
2023-02-09T02:42:26.314Z,102461.41
2023-02-09T02:47:31.676Z,102459.78
2023-02-09T02:52:33.306Z,102448.34
2023-02-09T02:57:37.388Z,102438.09
2023-02-09T03:02:43.088Z,102446.63
2023-02-09T03:07:44.531Z,102435.34
2023-02-09T03:13:26.290Z,102443.28
2023-02-09T03:18:35.343Z,102442.34
2023-02-09T03:23:47.158Z,102445.75
2023-02-09T03:28:54.610Z,102448.25
2023-02-09T03:33:58.186Z,102435.50
2023-02-09T03:38:59.645Z,102433.56
2023-02-09T03:44:19.628Z,102429.13
2023-02-09T03:49:21.221Z,102434.22
2023-02-09T03:54:22.712Z,102439.09
2023-02-09T03:59:27.010Z,102428.44
2023-02-09T04:04:28.550Z,102422.72
2023-02-09T04:09:30.001Z,102418.56
2023-02-09T04:14:31.455Z,102420.25
2023-02-09T04:19:32.900Z,102410.34
2023-02-09T04:24:34.342Z,102420.25
2023-02-09T04:29:35.782Z,102411.59
2023-02-09T04:34:37.227Z,102405.97
2023-02-09T04:39:38.657Z,102408.91
2023-02-09T04:44:40.102Z,102407.13
2023-02-09T04:49:44.402Z,102407.19
2023-02-09T04:54:45.852Z,102401.94
2023-02-09T04:59:47.333Z,102395.66
2023-02-09T05:04:48.799Z,102379.91
2023-02-09T05:09:50.226Z,102387.78
2023-02-09T05:14:51.660Z,102390.47
2023-02-09T05:19:53.201Z,102394.88
2023-02-09T05:24:54.640Z,102396.00
2023-02-09T05:29:56.095Z,102371.28
2023-02-09T05:34:57.546Z,102381.75
2023-02-09T05:39:58.996Z,102386.88
2023-02-09T05:45:00.430Z,102387.41
2023-02-09T05:50:02.206Z,102393.63
2023-02-09T05:55:03.897Z,102393.75
2023-02-09T06:00:06.619Z,102383.94
2023-02-09T06:05:13.334Z,102376.22
2023-02-09T06:10:14.753Z,102393.34
2023-02-09T06:15:16.328Z,102382.22
2023-02-09T06:20:17.941Z,102395.19
2023-02-09T06:25:19.421Z,102393.25
2023-02-09T06:30:20.922Z,102398.66
2023-02-09T06:35:22.396Z,102394.19
2023-02-09T06:40:23.939Z,102398.31
2023-02-09T06:45:25.479Z,102395.13
2023-02-09T06:50:26.916Z,102381.97
2023-02-09T06:55:28.527Z,102390.53
2023-02-09T07:00:31.478Z,102386.38
2023-02-09T07:05:32.936Z,102397.63
2023-02-09T07:10:34.385Z,102399.22
2023-02-09T07:15:35.895Z,102406.59
2023-02-09T07:20:37.447Z,102404.75
2023-02-09T07:25:38.881Z,102414.53
2023-02-09T07:30:42.968Z,102421.44
2023-02-09T07:35:44.851Z,102423.31
2023-02-09T07:40:46.836Z,102419.34
2023-02-09T07:45:48.495Z,102419.50
2023-02-09T07:50:51.044Z,102408.41
2023-02-09T07:55:52.824Z,102410.94
2023-02-09T08:00:54.336Z,102400.63
2023-02-09T08:06:01.874Z,102408.69
2023-02-09T08:11:05.354Z,102408.69
2023-02-09T08:16:11.560Z,102415.91
2023-02-09T08:21:16.224Z,102417.69
2023-02-09T08:26:18.553Z,102416.81
2023-02-09T08:31:21.786Z,102412.50
2023-02-09T08:36:23.358Z,102406.53
2023-02-09T08:58:19.088Z,102385.63
2023-02-09T09:03:20.637Z,102369.09
2023-02-09T09:08:22.154Z,102350.50
2023-02-09T09:13:27.197Z,102362.09
2023-02-09T09:18:28.631Z,102348.66
2023-02-09T09:23:30.053Z,102347.84
2023-02-09T09:28:31.701Z,102342.13
2023-02-09T09:33:33.308Z,102340.66
2023-02-09T09:38:36.861Z,102336.63
2023-02-09T09:43:41.029Z,102337.88
2023-02-09T09:48:54.699Z,102329.00
2023-02-09T09:53:59.248Z,102335.97
2023-02-09T09:59:01.777Z,102334.34
2023-02-09T10:04:11.800Z,102328.47
2023-02-09T10:09:25.743Z,102337.13
2023-02-09T10:14:27.748Z,102332.16
2023-02-09T10:19:30.308Z,102337.63
2023-02-09T10:24:33.465Z,102344.13
2023-02-09T10:29:35.709Z,102338.41
2023-02-09T10:34:44.909Z,102327.31
2023-02-09T10:40:00.357Z,102317.66
2023-02-09T10:45:10.897Z,102314.63
2023-02-09T10:50:14.304Z,102307.97
2023-02-09T10:55:21.990Z,102292.53
2023-02-09T11:00:37.390Z,102290.25
2023-02-09T11:05:38.919Z,102288.47
2023-02-09T11:10:45.970Z,102280.56
2023-02-09T11:16:14.850Z,102270.81
2023-02-09T11:21:32.499Z,102258.56
2023-02-09T11:26:49.789Z,102253.19
2023-02-09T11:32:05.213Z,102242.88
2023-02-09T11:37:25.346Z,102229.66
2023-02-09T11:42:44.454Z,102223.41
2023-02-09T11:48:10.661Z,102210.38
2023-02-09T11:53:20.329Z,102193.13
2023-02-09T11:58:33.552Z,102184.56
2023-02-09T12:03:34.992Z,102171.78
2023-02-09T12:08:45.555Z,102189.66
2023-02-09T12:14:18.136Z,102172.09
2023-02-09T12:19:37.418Z,102168.09
2023-02-09T12:24:40.518Z,102151.09
2023-02-09T12:29:41.960Z,102135.75
2023-02-09T12:34:52.305Z,102124.00
2023-02-09T12:40:18.330Z,102115.53
2023-02-09T12:46:08.295Z,102116.56
2023-02-09T12:51:48.154Z,102108.47
2023-02-09T12:56:49.614Z,102091.72
2023-02-09T13:02:08.706Z,102092.06
2023-02-09T13:07:23.969Z,102092.88
2023-02-09T13:12:35.992Z,102066.56
2023-02-09T13:18:02.426Z,102053.59
2023-02-09T13:23:16.365Z,102052.69
2023-02-09T13:28:22.515Z,102064.69
2023-02-09T13:33:50.850Z,102073.78
2023-02-09T13:38:53.073Z,102075.78
2023-02-09T13:43:54.446Z,102082.06
2023-02-09T13:49:10.268Z,102094.34
2023-02-09T13:54:19.659Z,102082.88
2023-02-09T13:59:21.258Z,102105.94
2023-02-09T14:04:27.868Z,102103.94
2023-02-09T14:09:37.942Z,102102.88
2023-02-09T14:15:03.001Z,102107.97
2023-02-09T14:20:19.867Z,102102.78
2023-02-09T14:25:29.206Z,102094.09
2023-02-09T14:30:34.116Z,102086.56
2023-02-09T14:35:41.303Z,102087.50
2023-02-09T14:40:42.872Z,102093.94
2023-02-09T14:45:47.904Z,102101.78
2023-02-09T14:50:53.451Z,102098.44
2023-02-09T14:55:56.154Z,102093.16
2023-02-09T15:01:00.485Z,102085.63
2023-02-09T15:06:03.807Z,102083.94
2023-02-09T15:11:34.218Z,102076.63
2023-02-09T15:16:35.662Z,102086.22
2023-02-09T15:21:37.091Z,102094.16
2023-02-09T15:26:39.049Z,102095.75
2023-02-09T15:31:41.114Z,102096.69
2023-02-09T15:36:42.613Z,102112.78
2023-02-09T15:42:02.512Z,102115.47
2023-02-09T15:47:23.602Z,102112.16
2023-02-09T15:52:25.088Z,102106.75
2023-02-09T15:57:27.100Z,102126.81
2023-02-09T16:02:28.567Z,102135.38
2023-02-09T16:07:30.220Z,102121.03
2023-02-09T16:12:31.789Z,102121.84
2023-02-09T16:17:33.229Z,102117.44
2023-02-09T16:22:34.748Z,102116.59
2023-02-09T16:27:36.210Z,102110.03
2023-02-09T16:32:37.669Z,102105.09
2023-02-09T16:37:39.536Z,102125.72
2023-02-09T16:42:40.955Z,102139.31
2023-02-09T16:47:49.194Z,102148.28
2023-02-09T16:52:53.471Z,102150.00
2023-02-09T16:57:57.180Z,102151.28
2023-02-09T17:03:14.038Z,102161.13
2023-02-09T17:08:19.302Z,102157.00
2023-02-09T17:13:21.464Z,102179.75
2023-02-09T17:18:43.866Z,102170.81
2023-02-09T17:23:45.359Z,102168.72
2023-02-09T17:28:47.249Z,102185.69
2023-02-09T17:33:54.633Z,102191.88
2023-02-09T17:38:57.883Z,102198.47
2023-02-09T17:44:24.149Z,102213.00
2023-02-09T17:49:34.172Z,102203.41
2023-02-09T17:54:35.532Z,102190.94
2023-02-09T17:59:37.009Z,102197.47
2023-02-09T18:04:38.432Z,102187.88
2023-02-09T18:09:39.995Z,102182.84
2023-02-09T18:14:41.768Z,102194.38
2023-02-09T18:19:43.247Z,102190.19
2023-02-09T18:24:44.727Z,102183.84
2023-02-09T18:29:46.273Z,102172.59
2023-02-09T18:34:48.559Z,102162.81
2023-02-09T18:39:50.121Z,102159.53
2023-02-09T18:44:51.732Z,102165.59
2023-02-09T18:49:53.259Z,102161.31
2023-02-09T18:54:55.062Z,102167.38
2023-02-09T18:59:56.578Z,102162.31
2023-02-09T19:05:00.354Z,102164.06
2023-02-09T19:10:04.302Z,102180.88
2023-02-09T19:15:06.135Z,102179.97
2023-02-09T19:20:12.070Z,102193.16
2023-02-09T19:25:15.098Z,102181.91
2023-02-09T19:30:24.572Z,102190.00
2023-02-09T19:35:26.236Z,102206.53
2023-02-09T19:40:33.250Z,102218.38
2023-02-09T19:45:37.679Z,102216.00
2023-02-09T19:50:39.208Z,102216.56
2023-02-09T19:55:40.659Z,102212.09
2023-02-09T20:00:42.338Z,102218.38
2023-02-09T20:05:44.104Z,102209.00
2023-02-09T20:10:46.347Z,102207.44
2023-02-09T20:15:48.485Z,102204.00
2023-02-09T20:20:50.197Z,102205.75
2023-02-09T20:25:51.646Z,102207.66
2023-02-09T20:30:53.098Z,102204.94
2023-02-09T20:35:55.367Z,102190.88
2023-02-09T20:40:56.832Z,102193.34
2023-02-09T20:46:16.915Z,102199.31
2023-02-09T20:51:19.025Z,102184.63
2023-02-09T20:56:21.052Z,102195.94
2023-02-09T21:01:23.863Z,102184.41
2023-02-09T21:06:25.916Z,102176.53
2023-02-09T21:11:27.423Z,102194.31
2023-02-09T21:16:29.350Z,102190.91
2023-02-09T21:21:30.826Z,102200.53
2023-02-09T21:26:32.254Z,102218.97
2023-02-09T21:31:34.181Z,102223.50
2023-02-09T21:36:37.045Z,102240.97
2023-02-09T21:41:57.835Z,102245.34
2023-02-09T21:47:00.549Z,102244.66
2023-02-09T21:52:02.013Z,102241.09
2023-02-09T21:57:03.872Z,102239.63
2023-02-09T22:02:05.388Z,102237.28
2023-02-09T22:07:06.828Z,102243.53
2023-02-09T22:12:08.633Z,102236.47
2023-02-09T22:17:10.124Z,102241.72
2023-02-09T22:22:11.626Z,102233.13
2023-02-09T22:27:13.083Z,102244.47
2023-02-09T22:32:14.522Z,102253.38
2023-02-09T22:37:15.957Z,102257.06
2023-02-09T22:42:17.375Z,102264.09
2023-02-09T22:47:18.833Z,102262.13
2023-02-09T22:52:20.296Z,102256.88
2023-02-09T22:57:21.729Z,102256.25
2023-02-09T23:02:24.057Z,102241.22
2023-02-09T23:07:26.114Z,102245.50
2023-02-09T23:12:27.555Z,102246.47
2023-02-09T23:17:29.082Z,102257.03
2023-02-09T23:22:30.532Z,102249.06
2023-02-09T23:27:31.982Z,102242.94
2023-02-09T23:32:33.425Z,102243.03
2023-02-09T23:37:38.508Z,102251.59
2023-02-09T23:42:40.337Z,102259.50
2023-02-09T23:47:41.810Z,102264.59
2023-02-09T23:52:43.368Z,102257.56
2023-02-09T23:57:44.810Z,102251.69
